Terminal Aerodrome Forecast
Issued by NWS

Home | Current Version | Previous Version | Text Only | Print | Product List | Glossary On
Versions: 1 2 3 4 5 6 7 8 9 10 11 12 13 14 15 16 17 18 19 20 21 22 23 24 25 26 27
000
FTUS41 KGYX 281600 AAE
TAFHIE
TAF AMD
KHIE 281609Z 2816/2912 32006KT 1 1/2SM TSRA BR SCT010 OVC040CB
     FM281800 VRB03KT 5SM -SHRA SCT025 OVC040
     FM282200 VRB03KT P6SM -SHRA BKN018 OVC030
     FM290500 VRB03KT P6SM BKN030=

USA.gov is the U.S. government's official web portal to all federal, state and local government web resources and services.